Barcelona-Gracia (Barcelonés)





Hora UTC 23:25
Temperatura 13.1 ºC
Humitat 77.0 %
Pressió 1010.3 hPa
Pluja 0.0 mm
Velocitat vent 0.0 km/h
Direcció vent

Dades diàries 2024-02-27



Hora UTC (hivern +1h; estiu +2h)
Temperatura (ºC) Humitat (%) Pressió (hPa) Velocitat vent (km/h) Precipitació (mm)
Hora UTC Aire Humitat Pressió Vel. Dir. Vel. Max Dir. Intent. màx 5 min.
00:05 9.9 73.0 1001.9 0.0 0.0 0.0
00:15 9.9 72.0 1002.3 4.8 17.7 0.0
00:25 9.9 73.0 1002.4 0.0 17.7 0.0
00:35 10.0 72.0 1002.6 1.6 17.7 0.0
00:45 10.2 73.0 1002.6 0.0 17.7 0.0
00:55 10.2 72.0 1002.7 0.0 17.7 0.0
01:05 10.1 72.0 1002.6 1.6 17.7 0.0
01:15 10.1 73.0 1002.5 0.0 17.7 0.0
01:25 10.2 73.0 1002.6 1.6 17.7 0.0
01:35 10.2 73.0 1002.7 0.0 17.7 0.0
01:45 10.1 72.0 1002.7 6.4 17.7 0.0
01:55 9.9 72.0 1002.8 3.2 17.7 0.0
02:05 9.7 73.0 1003.0 1.6 17.7 0.0
02:15 9.5 73.0 1003.0 4.8 19.3 0.0
02:25 9.4 73.0 1002.8 4.8 19.3 0.0
02:35 9.4 73.0 1002.8 1.6 19.3 0.0
02:45 9.4 73.0 1002.7 1.6 19.3 0.0
02:55 9.6 72.0 1002.7 1.6 19.3 0.0
03:05 9.5 72.0 1002.9 3.2 19.3 0.0
03:15 9.4 72.0 1003.1 6.4 19.3 0.0
03:25 9.2 73.0 1003.2 8.0 20.9 0.0
03:35 9.2 73.0 1003.3 3.2 22.5 0.0
03:45 9.1 73.0 1003.5 8.0 22.5 0.0
03:55 9.1 73.0 1003.5 11.3 22.5 0.0
04:05 9.1 73.0 1003.6 11.3 22.5 0.0
04:15 9.1 73.0 1003.6 8.0 22.5 0.0
04:25 9.1 73.0 1003.6 3.2 22.5 0.0
04:35 9.2 73.0 1003.7 11.3 22.5 0.0
04:45 9.2 72.0 1003.7 4.8 22.5 0.0
04:55 9.1 73.0 1003.9 9.7 22.5 0.0
05:05 8.9 73.0 1004.0 6.4 25.7 0.0
05:15 8.7 74.0 1003.9 3.2 25.7 0.0
05:25 8.7 74.0 1004.1 0.0 25.7 0.0
05:35 8.6 74.0 1004.2 6.4 25.7 0.0
05:45 8.3 75.0 1004.3 8.0 25.7 0.0
05:55 8.1 76.0 1004.3 14.5 25.7 0.0
06:05 8.1 76.0 1004.4 9.7 30.6 0.0
06:15 8.1 76.0 1004.3 8.0 30.6 0.0
06:25 8.2 76.0 1004.5 12.9 30.6 0.0
06:35 8.2 76.0 1004.5 11.3 37.0 0.0
06:45 8.1 76.0 1004.5 16.1 37.0 0.0
06:55 8.2 76.0 1004.6 8.0 37.0 0.0
07:05 8.1 76.0 1005.0 4.8 37.0 0.0
07:15 8.2 76.0 1005.0 4.8 37.0 0.0
07:25 8.3 76.0 1005.1 4.8 37.0 0.0
07:35 8.3 75.0 1005.1 1.6 37.0 0.0
07:45 8.1 76.0 1005.1 8.0 37.0 0.0
07:55 8.1 76.0 1005.2 17.7 37.0 0.0
08:05 8.1 76.0 1005.3 9.7 37.0 0.0
08:15 8.1 76.0 1005.3 16.1 37.0 0.0
08:25 8.2 76.0 1005.4 6.4 37.0 0.0
08:35 8.4 75.0 1005.6 6.4 37.0 0.0
08:45 8.7 74.0 1005.6 11.3 37.0 0.0
08:55 8.9 72.0 1005.9 3.2 37.0 0.0
09:05 9.2 72.0 1005.9 8.0 37.0 0.0
09:15 9.5 70.0 1006.1 4.8 37.0 0.0
09:25 10.0 69.0 1006.4 0.0 37.0 0.0
09:35 10.1 68.0 1006.6 3.2 37.0 0.0
09:45 10.2 68.0 1006.7 3.2 37.0 0.0
09:55 10.3 68.0 1006.8 4.8 37.0 0.0
10:05 10.4 66.0 1007.0 1.6 37.0 0.0
10:15 10.7 66.0 1007.2 0.0 37.0 0.0
10:25 11.2 65.0 1007.2 0.0 37.0 0.0
10:35 11.9 62.0 1007.2 1.6 37.0 0.0
10:45 12.5 59.0 1007.1 3.2 37.0 0.0
10:55 13.2 55.0 1007.4 1.6 37.0 0.0
11:05 13.8 54.0 1007.4 1.6 37.0 0.0
11:15 14.2 53.0 1007.3 0.0 37.0 0.0
11:25 14.3 51.0 1007.2 4.8 37.0 0.0
11:35 14.8 51.0 1007.1 0.0 37.0 0.0
11:45 15.8 49.0 1007.1 1.6 37.0 0.0
11:55 15.6 48.0 1007.1 1.6 37.0 0.0
12:05 15.7 47.0 1007.1 1.6 37.0 0.0
12:15 15.8 47.0 1006.9 3.2 37.0 0.0
12:25 16.1 46.0 1006.9 3.2 37.0 0.0
12:35 16.3 42.0 1006.9 8.0 37.0 0.0
12:45 16.8 40.0 1006.9 6.4 37.0 0.0
12:55 16.9 39.0 1006.8 12.9 37.0 0.0
13:05 17.1 39.0 1006.7 3.2 37.0 0.0
13:15 17.2 39.0 1006.6 14.5 37.0 0.0
13:25 17.3 39.0 1006.6 0.0 37.0 0.0
13:35 17.6 41.0 1006.5 0.0 37.0 0.0
13:45 17.3 50.0 1006.5 8.0 37.0 0.0
13:55 16.6 50.0 1006.4 19.3 37.0 0.0
14:05 16.4 49.0 1006.3 6.4 37.0 0.0
14:15 16.1 50.0 1006.3 16.1 37.0 0.0
14:25 16.1 52.0 1006.2 11.3 37.0 0.0
14:35 16.4 52.0 1006.2 8.0 37.0 0.0
14:45 16.6 50.0 1006.0 14.5 37.0 0.0
14:55 17.2 47.0 1005.9 16.1 37.0 0.0
15:05 17.5 45.0 1005.9 6.4 37.0 0.0
15:15 18.0 44.0 1005.8 4.8 37.0 0.0
15:25 18.6 37.0 1005.8 6.4 37.0 0.0
15:35 18.2 45.0 1006.0 14.5 37.0 0.0
15:45 18.1 47.0 1006.0 6.4 37.0 0.0
15:55 17.5 55.0 1006.4 14.5 37.0 0.0
16:05 16.0 64.0 1006.4 11.3 37.0 0.0
16:15 15.7 66.0 1006.6 9.7 37.0 0.0
16:25 15.5 65.0 1006.9 9.7 37.0 0.0
16:35 15.6 63.0 1007.0 0.0 37.0 0.0
16:45 15.7 59.0 1007.0 3.2 37.0 0.0
16:55 14.8 65.0 1007.3 11.3 37.0 0.0
17:05 14.6 66.0 1007.2 0.0 37.0 0.0
17:15 14.4 66.0 1007.3 4.8 37.0 0.0
17:25 14.4 67.0 1007.3 4.8 37.0 0.0
17:35 14.1 68.0 1007.4 3.2 37.0 0.0
17:45 13.7 70.0 1007.7 6.4 37.0 0.0
17:55 13.2 73.0 1007.7 12.9 37.0 0.0
18:05 13.1 74.0 1007.8 4.8 37.0 0.0
18:15 13.1 74.0 1007.6 3.2 37.0 0.0
18:25 13.1 74.0 1007.8 0.0 37.0 0.0
18:35 13.2 73.0 1008.0 1.6 37.0 0.0
18:45 13.2 74.0 1008.1 1.6 37.0 0.0
18:55 13.3 73.0 1008.2 0.0 37.0 0.0
19:05 13.5 72.0 1008.2 0.0 37.0 0.0
19:15 13.7 72.0 1008.3 0.0 37.0 0.0
19:25 13.7 72.0 1008.3 0.0 37.0 0.0
19:35 13.9 71.0 1008.3 0.0 37.0 0.0
19:45 13.9 71.0 1008.5 0.0 37.0 0.0
19:55 13.9 70.0 1008.6 0.0 37.0 0.0
20:05 14.2 49.0 1008.6 0.0 37.0 0.0
20:15 14.8 42.0 1008.7 4.8 37.0 0.0
20:25 14.9 40.0 1008.9 1.6 37.0 0.0
20:35 14.9 40.0 1009.0 3.2 37.0 0.0
20:45 14.2 63.0 1009.5 9.7 37.0 0.0
20:55 13.3 68.0 1009.7 6.4 37.0 0.0
21:05 12.9 69.0 1009.7 11.3 37.0 0.0
21:15 12.7 74.0 1009.8 3.2 37.0 0.0
21:25 12.7 76.0 1009.9 8.0 37.0 0.0
21:35 12.6 78.0 1009.9 0.0 37.0 0.0
21:45 12.6 78.0 1009.9 0.0 37.0 0.0
21:55 12.7 79.0 1010.1 0.0 37.0 0.0
22:05 12.6 80.0 1010.1 0.0 37.0 0.0
22:15 12.6 81.0 1010.2 0.0 37.0 0.0
22:25 12.7 81.0 1010.2 0.0 37.0 0.0
22:35 12.8 81.0 1010.1 0.0 37.0 0.0
22:45 12.8 80.0 1010.1 0.0 37.0 0.0
22:55 12.9 79.0 1010.1 3.2 37.0 0.0
23:05 13.0 79.0 1010.1 6.4 37.0 0.0
23:15 13.0 79.0 1010.1 6.4 0.0
23:25 13.1 77.0 1010.3 0.0 8.0 0.0
Màxima 18.6 81.0 1010.3 19.3 37.0 0.0
Mínima 8.1 37.0 1001.9
Total 0.0